Time;durP1;ratioP1;P1;durP2;ratioP2;P2;SDS_P1;SDS_P2;PMS_P1;PMS_P2;Temp;Humidity;BMP_temperature;BMP_pressure;BME280_temperature;BME280_humidity;BME280_pressure;Samples;Min_cycle;Max_cycle;Signal;HPM_P1;HPM_P2
2023/01/30 00:10:22;;;;;;;15.20;8.30;;;;;;;0.22;100.00;100108.66;31846131;27;20076;-73
2023/01/30 00:25:27;;;;;;;16.23;8.57;;;;;;;0.22;100.00;100114.00;31840951;27;20050;-73
2023/01/30 00:40:29;;;;;;;19.03;9.70;;;;;;;0.25;100.00;100107.94;31854219;27;20100;-74
2023/01/30 00:55:32;;;;;;;17.37;9.23;;;;;;;0.24;100.00;100101.81;31845599;27;20503;-74
2023/01/30 01:10:34;;;;;;;18.90;9.30;;;;;;;0.18;100.00;100102.47;31835881;27;20488;-75
2023/01/30 01:25:36;;;;;;;17.60;9.43;;;;;;;0.26;100.00;100110.25;31842671;27;20051;-73
2023/01/30 01:56:00;;;;;;;12.70;7.07;;;;;;;0.19;100.00;100088.75;31829466;27;20468;-74
2023/01/30 02:11:11;;;;;;;19.40;7.77;;;;;;;0.40;100.00;100082.31;31829792;27;20054;-76
2023/01/30 06:51:52;;;;;;;14.93;7.07;;;;;;;0.81;100.00;100107.56;31398008;28;20475;-77
2023/01/30 07:06:55;;;;;;;14.50;8.23;;;;;;;0.94;100.00;100107.09;31400220;28;20057;-78
2023/01/30 07:21:57;;;;;;;16.03;7.70;;;;;;;1.14;100.00;100104.38;31375957;28;20060;-81
2023/01/30 07:36:59;;;;;;;16.53;7.80;;;;;;;1.13;100.00;100094.81;31402869;28;20114;-81
2023/01/30 07:52:01;;;;;;;16.77;7.87;;;;;;;1.18;100.00;100099.88;31360330;28;20051;-81
2023/01/30 08:07:03;;;;;;;21.90;8.20;;;;;;;1.30;100.00;100091.69;31291959;28;20075;-80
2023/01/30 08:22:05;;;;;;;15.17;7.20;;;;;;;1.45;100.00;100101.50;31290475;28;20060;-78
2023/01/30 08:37:07;;;;;;;17.87;7.07;;;;;;;1.48;100.00;100090.06;31294105;28;20065;-80
2023/01/30 08:52:10;;;;;;;35.83;16.10;;;;;;;1.48;100.00;100071.34;31314774;28;20387;-80
2023/01/30 09:07:12;;;;;;;24.90;10.23;;;;;;;1.64;100.00;100063.22;31290361;28;20050;-80
2023/01/30 09:22:15;;;;;;;24.87;11.93;;;;;;;1.70;100.00;100054.50;31307621;28;20079;-76
2023/01/30 09:37:17;;;;;;;18.47;8.63;;;;;;;1.71;100.00;100031.97;31354145;28;20112;-82
2023/01/30 09:52:29;;;;;;;19.03;10.33;;;;;;;2.05;100.00;100024.03;31366452;28;20360;-82
2023/01/30 10:07:47;;;;;;;14.20;6.87;;;;;;;2.23;100.00;100003.59;31349054;28;20053;-82
2023/01/30 14:37:40;;;;;;;12.33;6.10;;;;;;;2.66;100.00;99776.28;38348521;22;1579581;-86
2023/01/30 14:52:43;;;;;;;11.43;5.97;;;;;;;2.32;100.00;99781.78;38490929;23;20478;-81
2023/01/30 15:08:05;;;;;;;13.90;7.07;;;;;;;2.16;100.00;99773.19;38440249;23;20017;-89
2023/01/30 15:23:34;;;;;;;19.77;7.90;;;;;;;1.87;100.00;99774.09;38476608;23;20047;-83
2023/01/30 15:38:36;;;;;;;16.47;6.17;;;;;;;1.59;100.00;99767.28;38416983;23;20021;-82
2023/01/30 15:53:42;;;;;;;15.50;7.07;;;;;;;1.56;100.00;99746.63;38410492;23;20404;-88
2023/01/30 16:09:04;;;;;;;13.23;7.83;;;;;;;1.44;100.00;99749.53;38439279;23;20017;-82
2023/01/30 16:24:15;;;;;;;22.13;9.73;;;;;;;1.42;100.00;99751.78;38405493;23;20110;-80
2023/01/30 16:39:36;;;;;;;17.63;9.90;;;;;;;1.62;100.00;99774.59;38416816;23;20090;-89
2023/01/30 16:54:44;;;;;;;19.53;10.03;;;;;;;1.76;100.00;99782.00;38435896;23;20402;-79
2023/01/30 17:09:47;;;;;;;23.27;10.67;;;;;;;1.79;100.00;99781.25;38426130;23;20029;-90
2023/01/30 17:24:49;;;;;;;24.00;10.73;;;;;;;1.78;100.00;99773.59;38440423;23;20036;-89
2023/01/30 17:39:51;;;;;;;21.13;11.20;;;;;;;1.74;100.00;99764.75;38466558;23;20045;-88
2023/01/30 17:54:53;;;;;;;27.00;13.00;;;;;;;1.52;100.00;99743.13;38436329;23;20017;-89
2023/01/30 18:09:56;;;;;;;21.97;9.63;;;;;;;1.59;100.00;99745.13;38430024;23;20079;-89
2023/01/30 18:24:58;;;;;;;20.40;9.80;;;;;;;1.59;100.00;99739.75;38438714;23;20098;-89
2023/01/30 18:40:03;;;;;;;16.67;8.30;;;;;;;1.51;100.00;99722.84;38436654;23;20025;-89
2023/01/30 18:55:06;;;;;;;16.87;8.03;;;;;;;1.35;100.00;99714.28;38434798;23;20013;-90
2023/01/30 19:10:16;;;;;;;18.70;9.03;;;;;;;1.42;100.00;99718.94;38432108;23;20320;-83
2023/01/30 19:25:18;;;;;;;25.83;10.57;;;;;;;1.11;100.00;99709.41;38415906;23;20099;-89
2023/01/30 19:40:22;;;;;;;25.30;11.90;;;;;;;0.93;100.00;99707.31;38421682;23;20092;-80
2023/01/30 19:55:25;;;;;;;27.07;11.97;;;;;;;0.72;100.00;99695.53;38460716;23;20036;-81
2023/01/30 20:10:30;;;;;;;25.57;11.87;;;;;;;0.53;100.00;99693.75;38422273;23;20032;-89
2023/01/30 20:25:34;;;;;;;21.73;9.93;;;;;;;0.48;100.00;99699.41;38409843;23;20021;-81
2023/01/30 20:40:38;;;;;;;27.30;10.83;;;;;;;0.40;100.00;99697.78;38395983;23;20017;-75
2023/01/30 21:29:00;;;;;;;16.80;8.97;;;;;;;0.72;100.00;99666.91;38452767;23;20051;-88
2023/01/30 21:44:02;;;;;;;20.23;10.77;;;;;;;0.86;100.00;99659.09;38417342;23;20459;-88
2023/01/30 21:59:05;;;;;;;18.97;8.40;;;;;;;0.95;100.00;99654.22;38423593;23;20100;-80
